Time,TemperatureF,DewpointF,PressureIn,WindDirection,WindDirectionDegrees,WindSpeedMPH,WindSpeedGustMPH,Humidity,HourlyPrecipIn,Conditions,Clouds,dailyrainin,SoftwareType,DateUTC
2013-07-08 00:00:00,70.0,69.7,29.77,ENE,67,2.0,5.0,99,0.00,,,0.16,Wunderground v.1.15,2013-07-08 05:00:00,
2013-07-08 00:02:00,70.0,69.7,29.77,ENE,72,2.0,5.0,99,0.00,,,0.16,Wunderground v.1.15,2013-07-08 05:02:00,
2013-07-08 00:04:00,70.0,69.7,29.78,ENE,63,2.0,5.0,99,0.00,,,0.00,Wunderground v.1.15,2013-07-08 05:04:00,
2013-07-08 00:06:00,70.1,69.8,29.78,ENE,77,2.0,5.0,99,0.00,,,0.00,Wunderground v.1.15,2013-07-08 05:06:00,
2013-07-08 00:08:00,70.1,69.8,29.78,ENE,77,2.0,5.0,99,0.00,,,0.00,Wunderground v.1.15,2013-07-08 05:08:00,
2013-07-08 00:10:00,70.1,69.8,29.78,ENE,77,2.0,2.0,99,0.00,,,0.00,Wunderground v.1.15,2013-07-08 05:10:00,
2013-07-08 00:14:00,70.1,69.8,29.78,North,11,1.0,2.0,99,0.00,,,0.00,Wunderground v.1.15,2013-07-08 05:14:00,
2013-07-08 00:15:00,70.1,69.8,29.78,North,11,1.0,2.0,99,0.00,,,0.00,Wunderground v.1.15,2013-07-08 05:15:00,
2013-07-08 00:17:00,70.1,69.8,29.77,North,11,1.0,2.0,99,0.00,,,0.00,Wunderground v.1.15,2013-07-08 05:17:00,
2013-07-08 00:20:00,70.1,69.8,29.77,ENE,67,1.0,2.0,99,0.00,,,0.00,Wunderground v.1.15,2013-07-08 05:20:00,
2013-07-08 00:24:00,69.9,69.6,29.77,ENE,74,1.0,3.0,99,0.00,,,0.00,Wunderground v.1.15,2013-07-08 05:24:00,
2013-07-08 00:26:00,69.8,69.5,29.77,SE,139,1.0,3.0,99,0.00,,,0.00,Wunderground v.1.15,2013-07-08 05:26:00,
2013-07-08 00:28:00,69.7,69.4,29.77,ESE,115,1.0,3.0,99,0.00,,,0.00,Wunderground v.1.15,2013-07-08 05:28:00,
2013-07-08 00:32:00,69.8,69.5,29.77,ENE,69,1.0,1.0,99,0.00,,,0.00,Wunderground v.1.15,2013-07-08 05:32:00,
2013-07-08 00:34:00,69.8,69.5,29.78,ENE,69,1.0,1.0,99,0.00,,,0.00,Wunderground v.1.15,2013-07-08 05:34:00,
2013-07-08 00:37:00,69.8,69.5,29.78,SSE,163,1.0,2.0,99,0.00,,,0.00,Wunderground v.1.15,2013-07-08 05:37:00,
2013-07-08 00:40:00,69.8,69.5,29.78,South,169,1.0,1.0,99,0.00,,,0.00,Wunderground v.1.15,2013-07-08 05:40:00,
2013-07-08 00:42:00,69.8,69.8,29.78,South,187,1.0,1.0,100,0.00,,,0.00,Wunderground v.1.15,2013-07-08 05:42:00,
2013-07-08 00:48:00,69.9,69.9,29.76,SE,136,1.0,1.0,100,0.00,,,0.00,Wunderground v.1.15,2013-07-08 05:48:00,
2013-07-08 00:52:00,70.2,70.2,29.76,SE,135,1.0,1.0,100,0.00,,,0.00,Wunderground v.1.15,2013-07-08 05:52:00,
2013-07-08 00:54:00,70.3,70.3,29.76,SE,136,1.0,1.0,100,0.00,,,0.00,Wunderground v.1.15,2013-07-08 05:54:00,
2013-07-08 00:56:00,70.3,70.3,29.76,SE,136,1.0,1.0,100,0.00,,,0.00,Wunderground v.1.15,2013-07-08 05:56:00,
2013-07-08 00:57:00,70.4,70.4,29.75,SE,136,1.0,1.0,100,0.00,,,0.00,Wunderground v.1.15,2013-07-08 05:57:00,
2013-07-08 00:59:00,70.3,70.3,29.76,SE,136,1.0,1.0,100,0.00,,,0.00,Wunderground v.1.15,2013-07-08 05:59:00,
2013-07-08 01:02:00,70.2,70.2,29.76,SE,136,0.0,4.0,100,0.00,,,0.00,Wunderground v.1.15,2013-07-08 06:02:00,
2013-07-08 01:04:00,70.2,70.2,29.76,SE,138,0.0,4.0,100,0.00,,,0.00,Wunderground v.1.15,2013-07-08 06:04:00,
2013-07-08 01:06:00,70.2,70.2,29.76,SSE,151,0.0,4.0,100,0.00,,,0.00,Wunderground v.1.15,2013-07-08 06:06:00,
2013-07-08 01:08:00,70.3,70.3,29.76,SE,141,0.0,4.0,100,0.00,,,0.00,Wunderground v.1.15,2013-07-08 06:08:00,
2013-07-08 01:14:00,70.3,70.3,29.76,SE,131,1.0,4.0,100,0.00,,,0.00,Wunderground v.1.15,2013-07-08 06:14:00,
2013-07-08 01:16:00,70.3,70.3,29.76,SE,131,1.0,4.0,100,0.00,,,0.00,Wunderground v.1.15,2013-07-08 06:16:00,
2013-07-08 01:18:00,70.2,70.2,29.76,SE,131,1.0,4.0,100,0.00,,,0.00,Wunderground v.1.15,2013-07-08 06:18:00,
2013-07-08 01:24:00,70.1,70.1,29.76,SE,128,0.0,4.0,100,0.00,,,0.00,Wunderground v.1.15,2013-07-08 06:24:00,
2013-07-08 01:26:00,70.0,70.0,29.76,SE,128,0.0,4.0,100,0.00,,,0.00,Wunderground v.1.15,2013-07-08 06:26:00,
2013-07-08 01:30:00,69.9,69.9,29.76,ESE,122,0.0,4.0,100,0.00,,,0.00,Wunderground v.1.15,2013-07-08 06:30:00,
2013-07-08 01:34:00,69.7,69.7,29.77,NE,40,1.0,4.0,100,0.00,,,0.00,Wunderground v.1.15,2013-07-08 06:34:00,
2013-07-08 01:36:00,69.7,69.7,29.77,NE,41,1.0,4.0,100,0.00,,,0.00,Wunderground v.1.15,2013-07-08 06:36:00,
2013-07-08 01:38:00,69.8,69.8,29.77,NE,38,1.0,4.0,100,0.00,,,0.00,Wunderground v.1.15,2013-07-08 06:38:00,
2013-07-08 01:39:00,69.9,69.9,29.77,NE,38,1.0,1.0,100,0.00,,,0.00,Wunderground v.1.15,2013-07-08 06:39:00,
2013-07-08 01:46:00,69.9,69.9,29.77,NE,44,1.0,4.0,100,0.00,,,0.00,Wunderground v.1.15,2013-07-08 06:46:00,
2013-07-08 01:48:00,69.9,69.9,29.78,NE,54,0.0,4.0,100,0.00,,,0.00,Wunderground v.1.15,2013-07-08 06:48:00,
2013-07-08 01:50:00,69.9,69.9,29.78,SE,127,1.0,1.0,100,0.00,,,0.00,Wunderground v.1.15,2013-07-08 06:50:00,
2013-07-08 01:52:00,69.9,69.9,29.78,SE,125,1.0,4.0,100,0.00,,,0.00,Wunderground v.1.15,2013-07-08 06:52:00,
2013-07-08 01:54:00,69.9,69.9,29.78,SE,125,0.0,4.0,100,0.00,,,0.00,Wunderground v.1.15,2013-07-08 06:54:00,
2013-07-08 01:56:00,70.0,70.0,29.78,SE,136,0.0,4.0,100,0.00,,,0.00,Wunderground v.1.15,2013-07-08 06:56:00,
2013-07-08 01:58:00,70.0,70.0,29.78,SE,136,0.0,4.0,100,0.00,,,0.00,Wunderground v.1.15,2013-07-08 06:58:00,
2013-07-08 02:03:00,70.0,70.0,29.78,SSW,193,1.0,4.0,100,0.00,,,0.00,Wunderground v.1.15,2013-07-08 07:03:00,
2013-07-08 02:06:00,70.0,70.0,29.78,SSW,193,1.0,4.0,100,0.00,,,0.00,Wunderground v.1.15,2013-07-08 07:06:00,
2013-07-08 02:08:00,69.9,69.9,29.78,SW,215,1.0,4.0,100,0.00,,,0.00,Wunderground v.1.15,2013-07-08 07:08:00,
2013-07-08 02:12:00,69.7,69.7,29.78,SSW,212,1.0,4.0,100,0.00,,,0.00,Wunderground v.1.15,2013-07-08 07:12:00,
2013-07-08 02:14:00,69.7,69.7,29.78,SSW,212,1.0,4.0,100,0.00,,,0.00,Wunderground v.1.15,2013-07-08 07:14:00,
2013-07-08 02:16:00,69.6,69.6,29.78,SSW,212,1.0,4.0,100,0.00,,,0.00,Wunderground v.1.15,2013-07-08 07:16:00,
2013-07-08 02:20:00,69.6,69.6,29.78,SW,219,1.0,4.0,100,0.00,,,0.00,Wunderground v.1.15,2013-07-08 07:20:00,
2013-07-08 02:22:00,69.6,69.6,29.78,SSW,207,1.0,4.0,100,0.00,,,0.00,Wunderground v.1.15,2013-07-08 07:22:00,
2013-07-08 02:28:00,69.6,69.6,29.78,SSW,212,2.0,4.0,100,0.00,,,0.00,Wunderground v.1.15,2013-07-08 07:28:00,
2013-07-08 02:30:00,69.5,69.5,29.78,SSW,212,1.0,4.0,100,0.00,,,0.00,Wunderground v.1.15,2013-07-08 07:30:00,
2013-07-08 02:34:00,69.3,69.3,29.79,SSW,207,1.0,4.0,100,0.00,,,0.00,Wunderground v.1.15,2013-07-08 07:34:00,
2013-07-08 02:36:00,69.3,69.3,29.79,SSW,207,1.0,4.0,100,0.00,,,0.00,Wunderground v.1.15,2013-07-08 07:36:00,
2013-07-08 02:40:00,69.2,69.2,29.79,SSW,207,1.0,1.0,100,0.00,,,0.00,Wunderground v.1.15,2013-07-08 07:40:00,
2013-07-08 02:42:00,69.0,69.0,29.79,SSW,207,0.0,4.0,100,0.00,,,0.00,Wunderground v.1.15,2013-07-08 07:42:00,
2013-07-08 02:43:00,69.0,69.0,29.78,SSW,207,0.0,4.0,100,0.00,,,0.00,Wunderground v.1.15,2013-07-08 07:43:00,
2013-07-08 02:48:00,68.9,68.9,29.78,SW,221,0.0,4.0,100,0.00,,,0.00,Wunderground v.1.15,2013-07-08 07:48:00,
2013-07-08 02:52:00,68.9,68.9,29.79,SW,222,1.0,4.0,100,0.00,,,0.00,Wunderground v.1.15,2013-07-08 07:52:00,
2013-07-08 02:54:00,68.9,68.9,29.79,SW,222,1.0,4.0,100,0.00,,,0.00,Wunderground v.1.15,2013-07-08 07:54:00,
2013-07-08 02:56:00,68.9,68.9,29.79,SW,219,1.0,4.0,100,0.00,,,0.00,Wunderground v.1.15,2013-07-08 07:56:00,
2013-07-08 02:58:00,68.9,68.9,29.79,SW,219,1.0,4.0,100,0.00,,,0.00,Wunderground v.1.15,2013-07-08 07:58:00,
2013-07-08 03:02:00,69.0,69.0,29.79,SW,219,1.0,4.0,100,0.00,,,0.00,Wunderground v.1.15,2013-07-08 08:02:00,
2013-07-08 03:04:00,69.0,69.0,29.79,SW,219,1.0,4.0,100,0.00,,,0.00,Wunderground v.1.15,2013-07-08 08:04:00,
2013-07-08 03:07:00,69.1,69.1,29.79,SW,219,1.0,4.0,100,0.00,,,0.00,Wunderground v.1.15,2013-07-08 08:07:00,
2013-07-08 03:10:00,69.0,69.0,29.78,SW,219,1.0,1.0,100,0.00,,,0.00,Wunderground v.1.15,2013-07-08 08:10:00,
2013-07-08 03:14:00,68.9,68.9,29.78,SW,219,0.0,4.0,100,0.00,,,0.00,Wunderground v.1.15,2013-07-08 08:14:00,
2013-07-08 03:16:00,68.8,68.8,29.78,SW,219,0.0,4.0,100,0.00,,,0.00,Wunderground v.1.15,2013-07-08 08:16:00,
2013-07-08 03:20:00,68.8,68.8,29.78,SW,219,0.0,4.0,100,0.00,,,0.00,Wunderground v.1.15,2013-07-08 08:20:00,
2013-07-08 03:22:00,68.8,68.8,29.78,SW,219,0.0,4.0,100,0.00,,,0.00,Wunderground v.1.15,2013-07-08 08:22:00,
2013-07-08 03:27:00,68.8,68.8,29.78,SW,219,0.0,4.0,100,0.00,,,0.00,Wunderground v.1.15,2013-07-08 08:27:00,
2013-07-08 03:29:00,68.7,68.7,29.78,SW,219,0.0,4.0,100,0.00,,,0.00,Wunderground v.1.15,2013-07-08 08:29:00,
2013-07-08 03:32:00,68.6,68.6,29.78,SW,219,0.0,4.0,100,0.00,,,0.00,Wunderground v.1.15,2013-07-08 08:32:00,
2013-07-08 03:34:00,68.6,68.6,29.78,SW,219,0.0,4.0,100,0.00,,,0.00,Wunderground v.1.15,2013-07-08 08:34:00,
2013-07-08 03:38:00,68.5,68.5,29.77,SW,222,0.0,4.0,100,0.00,,,0.00,Wunderground v.1.15,2013-07-08 08:38:00,
2013-07-08 03:40:00,68.5,68.5,29.77,SW,224,0.0,4.0,100,0.00,,,0.00,Wunderground v.1.15,2013-07-08 08:40:00,
2013-07-08 03:44:00,68.4,68.4,29.77,SW,221,1.0,4.0,100,0.00,,,0.00,Wunderground v.1.15,2013-07-08 08:44:00,
2013-07-08 03:46:00,68.3,68.3,29.78,SW,221,1.0,4.0,100,0.00,,,0.00,Wunderground v.1.15,2013-07-08 08:46:00,
2013-07-08 03:47:00,68.2,68.2,29.78,SW,221,1.0,4.0,100,0.00,,,0.00,Wunderground v.1.15,2013-07-08 08:47:00,
2013-07-08 03:49:00,68.3,68.3,29.78,SW,225,1.0,4.0,100,0.00,,,0.00,Wunderground v.1.15,2013-07-08 08:49:00,
2013-07-08 03:52:00,68.3,68.3,29.78,SW,224,0.0,4.0,100,0.00,,,0.00,Wunderground v.1.15,2013-07-08 08:52:00,
2013-07-08 03:54:00,68.3,68.3,29.78,SW,226,1.0,4.0,100,0.00,,,0.00,Wunderground v.1.15,2013-07-08 08:54:00,
2013-07-08 03:56:00,68.3,68.3,29.78,SW,225,1.0,4.0,100,0.00,,,0.00,Wunderground v.1.15,2013-07-08 08:56:00,
2013-07-08 03:58:00,68.2,68.2,29.78,SW,226,1.0,4.0,100,0.00,,,0.00,Wunderground v.1.15,2013-07-08 08:58:00,
2013-07-08 04:00:00,68.2,68.2,29.78,SW,225,1.0,1.0,100,0.00,,,0.00,Wunderground v.1.15,2013-07-08 09:00:00,
2013-07-08 04:02:00,68.2,68.2,29.78,SW,225,1.0,4.0,100,0.00,,,0.00,Wunderground v.1.15,2013-07-08 09:02:00,
2013-07-08 04:06:00,68.1,68.1,29.78,SW,225,0.0,4.0,100,0.00,,,0.00,Wunderground v.1.15,2013-07-08 09:06:00,
2013-07-08 04:08:00,68.0,68.0,29.78,SW,226,0.0,4.0,100,0.00,,,0.00,Wunderground v.1.15,2013-07-08 09:08:00,
2013-07-08 04:09:00,67.9,67.9,29.77,SW,225,0.0,4.0,100,0.00,,,0.00,Wunderground v.1.15,2013-07-08 09:09:00,
2013-07-08 04:14:00,67.7,67.7,29.77,SW,225,0.0,4.0,100,0.00,,,0.00,Wunderground v.1.15,2013-07-08 09:14:00,
2013-07-08 04:16:00,67.6,67.6,29.77,SW,225,0.0,4.0,100,0.00,,,0.00,Wunderground v.1.15,2013-07-08 09:16:00,
2013-07-08 04:18:00,67.6,67.6,29.77,SW,226,0.0,4.0,100,0.00,,,0.00,Wunderground v.1.15,2013-07-08 09:18:00,
2013-07-08 04:22:00,67.5,67.5,29.77,SW,218,0.0,4.0,100,0.00,,,0.00,Wunderground v.1.15,2013-07-08 09:22:00,
2013-07-08 04:24:00,67.5,67.5,29.77,SW,219,0.0,4.0,100,0.00,,,0.00,Wunderground v.1.15,2013-07-08 09:24:00,
2013-07-08 04:26:00,67.5,67.5,29.77,SW,219,0.0,4.0,100,0.00,,,0.00,Wunderground v.1.15,2013-07-08 09:26:00,
2013-07-08 04:30:00,67.4,67.4,29.77,SW,218,0.0,4.0,100,0.00,,,0.00,Wunderground v.1.15,2013-07-08 09:30:00,
2013-07-08 04:31:00,67.4,67.4,29.78,SW,218,0.0,4.0,100,0.00,,,0.00,Wunderground v.1.15,2013-07-08 09:31:00,
2013-07-08 04:33:00,67.3,67.3,29.78,SW,218,0.0,4.0,100,0.00,,,0.00,Wunderground v.1.15,2013-07-08 09:33:00,
2013-07-08 04:40:00,67.2,67.2,29.77,SW,219,0.0,4.0,100,0.00,,,0.00,Wunderground v.1.15,2013-07-08 09:40:00,
2013-07-08 04:42:00,67.1,67.1,29.77,SW,219,0.0,4.0,100,0.00,,,0.00,Wunderground v.1.15,2013-07-08 09:42:00,
2013-07-08 04:44:00,67.0,67.0,29.77,SW,219,0.0,4.0,100,0.00,,,0.00,Wunderground v.1.15,2013-07-08 09:44:00,
2013-07-08 04:48:00,67.0,67.0,29.77,SW,225,1.0,4.0,100,0.00,,,0.00,Wunderground v.1.15,2013-07-08 09:48:00,
2013-07-08 04:50:00,67.0,67.0,29.77,SW,220,1.0,1.0,100,0.00,,,0.00,Wunderground v.1.15,2013-07-08 09:50:00,
2013-07-08 04:53:00,67.1,67.1,29.77,SW,222,1.0,4.0,100,0.00,,,0.00,Wunderground v.1.15,2013-07-08 09:53:00,
2013-07-08 04:56:00,67.0,67.0,29.77,SW,222,1.0,4.0,100,0.00,,,0.00,Wunderground v.1.15,2013-07-08 09:56:00,
2013-07-08 04:58:00,67.0,67.0,29.77,SW,222,0.0,4.0,100,0.00,,,0.00,Wunderground v.1.15,2013-07-08 09:58:00,
2013-07-08 05:02:00,66.9,66.9,29.77,SW,222,0.0,4.0,100,0.00,,,0.00,Wunderground v.1.15,2013-07-08 10:02:00,
2013-07-08 05:06:00,66.8,66.8,29.77,SW,222,0.0,4.0,100,0.00,,,0.00,Wunderground v.1.15,2013-07-08 10:06:00,
2013-07-08 05:12:00,66.7,66.7,29.77,SW,222,0.0,4.0,100,0.00,,,0.00,Wunderground v.1.15,2013-07-08 10:12:00,
2013-07-08 05:13:00,66.7,66.7,29.77,SW,231,0.0,4.0,100,0.00,,,0.00,Wunderground v.1.15,2013-07-08 10:13:00,
2013-07-08 05:18:00,66.8,66.8,29.77,SW,231,0.0,4.0,100,0.00,,,0.00,Wunderground v.1.15,2013-07-08 10:18:00,
2013-07-08 05:20:00,66.8,66.8,29.77,SW,229,0.0,4.0,100,0.00,,,0.00,Wunderground v.1.15,2013-07-08 10:20:00,
2013-07-08 05:22:00,66.8,66.8,29.77,SW,229,0.0,4.0,100,0.00,,,0.00,Wunderground v.1.15,2013-07-08 10:22:00,
2013-07-08 05:24:00,66.8,66.8,29.77,SW,229,0.0,4.0,100,0.00,,,0.00,Wunderground v.1.15,2013-07-08 10:24:00,
2013-07-08 05:26:00,66.8,66.8,29.77,SW,229,0.0,4.0,100,0.00,,,0.00,Wunderground v.1.15,2013-07-08 10:26:00,
2013-07-08 05:28:00,66.8,66.8,29.77,SW,235,0.0,4.0,100,0.00,,,0.00,Wunderground v.1.15,2013-07-08 10:28:00,
2013-07-08 05:30:00,66.8,66.8,29.78,SW,231,0.0,4.0,100,0.00,,,0.00,Wunderground v.1.15,2013-07-08 10:30:00,
2013-07-08 05:34:00,66.8,66.8,29.77,SW,231,1.0,4.0,100,0.00,,,0.00,Wunderground v.1.15,2013-07-08 10:34:00,
2013-07-08 05:35:00,66.9,66.9,29.77,SW,229,1.0,4.0,100,0.00,,,0.00,Wunderground v.1.15,2013-07-08 10:35:00,
2013-07-08 05:37:00,66.9,66.9,29.77,WSW,238,1.0,4.0,100,0.00,,,0.00,Wunderground v.1.15,2013-07-08 10:37:00,
2013-07-08 05:40:00,67.0,67.0,29.78,WSW,238,1.0,4.0,100,0.00,,,0.00,Wunderground v.1.15,2013-07-08 10:40:00,
2013-07-08 05:42:00,67.1,67.1,29.78,WSW,239,1.0,4.0,100,0.00,,,0.00,Wunderground v.1.15,2013-07-08 10:42:00,
2013-07-08 05:44:00,67.2,67.2,29.78,NNE,29,1.0,4.0,100,0.00,,,0.00,Wunderground v.1.15,2013-07-08 10:44:00,
2013-07-08 05:48:00,67.4,67.4,29.78,North,11,2.0,4.0,100,0.00,,,0.00,Wunderground v.1.15,2013-07-08 10:48:00,
2013-07-08 05:50:00,67.5,67.5,29.78,NNE,14,2.0,2.0,100,0.00,,,0.00,Wunderground v.1.15,2013-07-08 10:50:00,
2013-07-08 05:52:00,67.5,67.5,29.78,NNE,15,2.0,4.0,100,0.00,,,0.00,Wunderground v.1.15,2013-07-08 10:52:00,
2013-07-08 05:54:00,67.5,67.5,29.78,NE,34,2.0,4.0,100,0.00,,,0.00,Wunderground v.1.15,2013-07-08 10:54:00,
2013-07-08 05:55:00,67.6,67.6,29.78,NNE,30,2.0,4.0,100,0.00,,,0.00,Wunderground v.1.15,2013-07-08 10:55:00,
2013-07-08 06:00:00,67.6,67.6,29.78,NE,50,2.0,2.0,100,0.00,,,0.00,Wunderground v.1.15,2013-07-08 11:00:00,
2013-07-08 06:02:00,67.7,67.7,29.78,NE,49,2.0,4.0,100,0.00,,,0.00,Wunderground v.1.15,2013-07-08 11:02:00,
2013-07-08 06:04:00,67.7,67.7,29.78,NE,48,2.0,4.0,100,0.00,,,0.00,Wunderground v.1.15,2013-07-08 11:04:00,
2013-07-08 06:06:00,67.7,67.7,29.78,NE,46,1.0,4.0,100,0.00,,,0.00,Wunderground v.1.15,2013-07-08 11:06:00,
2013-07-08 06:08:00,67.7,67.7,29.78,ENE,77,1.0,4.0,100,0.00,,,0.00,Wunderground v.1.15,2013-07-08 11:08:00,
2013-07-08 06:10:00,67.8,67.8,29.78,ENE,70,1.0,1.0,100,0.00,,,0.00,Wunderground v.1.15,2013-07-08 11:10:00,
2013-07-08 06:14:00,68.0,68.0,29.79,ENE,61,1.0,4.0,100,0.00,,,0.00,Wunderground v.1.15,2013-07-08 11:14:00,
2013-07-08 06:16:00,68.0,68.0,29.79,ENE,61,1.0,4.0,100,0.00,,,0.00,Wunderground v.1.15,2013-07-08 11:16:00,
2013-07-08 06:19:00,68.1,68.1,29.80,ENE,70,0.0,4.0,100,0.00,,,0.00,Wunderground v.1.15,2013-07-08 11:19:00,
2013-07-08 06:26:00,68.1,68.1,29.80,ENE,70,0.0,4.0,100,0.00,,,0.00,Wunderground v.1.15,2013-07-08 11:26:00,
2013-07-08 06:28:00,68.1,68.1,29.80,ENE,70,0.0,4.0,100,0.00,,,0.00,Wunderground v.1.15,2013-07-08 11:28:00,
2013-07-08 06:30:00,68.2,68.2,29.80,NNW,346,0.0,4.0,100,0.00,,,0.00,Wunderground v.1.15,2013-07-08 11:30:00,
2013-07-08 06:32:00,68.2,68.2,29.80,NNE,28,0.0,4.0,100,0.00,,,0.00,Wunderground v.1.15,2013-07-08 11:32:00,
2013-07-08 06:36:00,68.5,68.5,29.80,ENE,58,1.0,4.0,100,0.00,,,0.00,Wunderground v.1.15,2013-07-08 11:36:00,
2013-07-08 06:38:00,68.7,68.7,29.80,NE,44,2.0,4.0,100,0.00,,,0.00,Wunderground v.1.15,2013-07-08 11:38:00,
2013-07-08 06:39:00,68.9,68.9,29.80,NE,53,2.0,2.0,100,0.00,,,0.00,Wunderground v.1.15,2013-07-08 11:39:00,
2013-07-08 06:41:00,69.0,69.0,29.80,NE,50,2.0,4.0,100,0.00,,,0.00,Wunderground v.1.15,2013-07-08 11:41:00,
2013-07-08 06:46:00,69.5,69.5,29.81,NE,51,2.0,4.0,100,0.00,,,0.00,Wunderground v.1.15,2013-07-08 11:46:00,
2013-07-08 06:48:00,69.7,69.7,29.81,NE,51,1.0,4.0,100,0.00,,,0.00,Wunderground v.1.15,2013-07-08 11:48:00,
2013-07-08 06:50:00,69.9,69.9,29.81,NE,51,1.0,1.0,100,0.00,,,0.00,Wunderground v.1.15,2013-07-08 11:50:00,
2013-07-08 06:54:00,70.2,70.2,29.81,NE,41,0.0,4.0,100,0.00,,,0.00,Wunderground v.1.15,2013-07-08 11:54:00,
2013-07-08 06:58:00,70.5,70.2,29.81,NE,41,0.0,4.0,99,0.00,,,0.00,Wunderground v.1.15,2013-07-08 11:58:00,
2013-07-08 06:59:00,70.8,70.5,29.81,NE,46,0.0,4.0,99,0.00,,,0.00,Wunderground v.1.15,2013-07-08 11:59:00,
2013-07-08 07:01:00,70.9,70.3,29.81,ENE,60,0.0,4.0,98,0.00,,,0.00,Wunderground v.1.15,2013-07-08 12:01:00,
2013-07-08 07:06:00,71.3,70.4,29.81,ENE,58,0.0,4.0,97,0.00,,,0.00,Wunderground v.1.15,2013-07-08 12:06:00,
2013-07-08 07:08:00,71.4,70.2,29.81,NE,52,0.0,4.0,96,0.00,,,0.00,Wunderground v.1.15,2013-07-08 12:08:00,
2013-07-08 07:10:00,71.5,70.3,29.81,ENE,57,1.0,4.0,96,0.00,,,0.00,Wunderground v.1.15,2013-07-08 12:10:00,
2013-07-08 07:14:00,71.4,69.9,29.81,ENE,72,1.0,4.0,95,0.00,,,0.00,Wunderground v.1.15,2013-07-08 12:14:00,
2013-07-08 07:18:00,71.4,69.9,29.82,NE,34,2.0,4.0,95,0.00,,,0.00,Wunderground v.1.15,2013-07-08 12:18:00,
2013-07-08 07:20:00,71.5,70.0,29.82,NE,34,1.0,1.0,95,0.00,,,0.00,Wunderground v.1.15,2013-07-08 12:20:00,
2013-07-08 07:21:00,71.8,70.3,29.82,NE,34,1.0,4.0,95,0.00,,,0.00,Wunderground v.1.15,2013-07-08 12:21:00,
2013-07-08 07:26:00,72.3,70.5,29.82,SSE,152,0.0,4.0,94,0.00,,,0.00,Wunderground v.1.15,2013-07-08 12:26:00,
2013-07-08 07:28:00,72.6,70.5,29.82,SSE,148,0.0,4.0,93,0.00,,,0.00,Wunderground v.1.15,2013-07-08 12:28:00,
2013-07-08 07:32:00,73.0,70.5,29.82,ENE,61,0.0,4.0,92,0.00,,,0.00,Wunderground v.1.15,2013-07-08 12:32:00,
2013-07-08 07:34:00,73.1,70.6,29.82,NNE,25,1.0,4.0,92,0.00,,,0.00,Wunderground v.1.15,2013-07-08 12:34:00,
2013-07-08 07:38:00,72.7,69.9,29.82,ENE,68,1.0,4.0,91,0.00,,,0.00,Wunderground v.1.15,2013-07-08 12:38:00,
2013-07-08 07:40:00,72.6,70.1,29.83,East,84,1.0,4.0,92,0.00,,,0.00,Wunderground v.1.15,2013-07-08 12:40:00,
2013-07-08 07:42:00,72.6,70.1,29.83,East,84,1.0,4.0,92,0.00,,,0.00,Wunderground v.1.15,2013-07-08 12:42:00,
2013-07-08 07:45:00,72.9,70.4,29.83,SE,135,1.0,4.0,92,0.00,,,0.00,Wunderground v.1.15,2013-07-08 12:45:00,
2013-07-08 07:50:00,73.4,70.6,29.83,East,98,0.0,4.0,91,0.00,,,0.00,Wunderground v.1.15,2013-07-08 12:50:00,
2013-07-08 07:52:00,73.5,70.7,29.84,NE,49,1.0,4.0,91,0.00,,,0.00,Wunderground v.1.15,2013-07-08 12:52:00,
2013-07-08 07:56:00,73.4,70.3,29.84,ENE,75,1.0,4.0,90,0.00,,,0.00,Wunderground v.1.15,2013-07-08 12:56:00,
2013-07-08 07:58:00,73.5,70.4,29.83,ESE,122,1.0,4.0,90,0.00,,,0.00,Wunderground v.1.15,2013-07-08 12:58:00,
2013-07-08 08:02:00,73.9,70.8,29.83,East,84,1.0,4.0,90,0.00,,,0.00,Wunderground v.1.15,2013-07-08 13:02:00,
2013-07-08 08:03:00,74.2,70.7,29.83,SSE,148,0.0,4.0,89,0.00,,,0.00,Wunderground v.1.15,2013-07-08 13:03:00,
2013-07-08 08:05:00,74.5,71.0,29.83,SE,135,0.0,4.0,89,0.00,,,0.00,Wunderground v.1.15,2013-07-08 13:05:00,
2013-07-08 08:10:00,75.0,71.2,29.84,ENE,60,0.0,4.0,88,0.00,,,0.00,Wunderground v.1.15,2013-07-08 13:10:00,
2013-07-08 08:14:00,74.7,70.6,29.84,ENE,60,1.0,4.0,87,0.00,,,0.00,Wunderground v.1.15,2013-07-08 13:14:00,
2013-07-08 08:16:00,74.2,70.1,29.84,NE,56,1.0,4.0,87,0.00,,,0.00,Wunderground v.1.15,2013-07-08 13:16:00,
2013-07-08 08:20:00,73.6,70.2,29.84,ENE,58,1.0,1.0,89,0.00,,,0.00,Wunderground v.1.15,2013-07-08 13:20:00,
2013-07-08 08:25:00,74.2,71.1,29.84,SSE,160,1.0,4.0,90,0.00,,,0.00,Wunderground v.1.15,2013-07-08 13:25:00,
2013-07-08 08:30:00,75.0,70.9,29.84,East,85,0.0,4.0,87,0.00,,,0.00,Wunderground v.1.15,2013-07-08 13:30:00,
2013-07-08 08:32:00,75.2,71.1,29.84,NE,45,1.0,4.0,87,0.00,,,0.00,Wunderground v.1.15,2013-07-08 13:32:00,
2013-07-08 08:36:00,75.5,71.4,29.84,SE,134,0.0,4.0,87,0.00,,,0.00,Wunderground v.1.15,2013-07-08 13:36:00,
2013-07-08 08:40:00,76.1,71.9,29.84,East,93,1.0,4.0,87,0.00,,,0.00,Wunderground v.1.15,2013-07-08 13:40:00,
2013-07-08 08:42:00,75.9,71.1,29.84,ENE,72,1.0,4.0,85,0.00,,,0.00,Wunderground v.1.15,2013-07-08 13:42:00,
2013-07-08 08:44:00,75.7,71.2,29.84,ENE,72,1.0,4.0,86,0.00,,,0.00,Wunderground v.1.15,2013-07-08 13:44:00,
2013-07-08 08:49:00,75.1,71.0,29.85,NE,56,1.0,4.0,87,0.00,,,0.00,Wunderground v.1.15,2013-07-08 13:49:00,
2013-07-08 08:52:00,75.0,70.9,29.85,ENE,58,2.0,4.0,87,0.00,,,0.00,Wunderground v.1.15,2013-07-08 13:52:00,
2013-07-08 08:54:00,75.0,71.2,29.84,East,88,2.0,4.0,88,0.00,,,0.00,Wunderground v.1.15,2013-07-08 13:54:00,
2013-07-08 08:56:00,74.9,71.1,29.84,NE,55,2.0,4.0,88,0.00,,,0.00,Wunderground v.1.15,2013-07-08 13:56:00,
2013-07-08 09:02:00,75.0,70.9,29.84,NE,53,2.0,4.0,87,0.00,,,0.00,Wunderground v.1.15,2013-07-08 14:02:00,
2013-07-08 09:07:00,74.4,70.3,29.84,NE,55,3.0,5.0,87,0.00,,,0.00,Wunderground v.1.15,2013-07-08 14:07:00,
2013-07-08 09:14:00,74.4,70.6,29.84,East,100,3.0,4.0,88,0.00,,,0.00,Wunderground v.1.15,2013-07-08 14:14:00,
2013-07-08 09:16:00,74.4,70.9,29.84,NE,51,3.0,4.0,89,0.00,,,0.00,Wunderground v.1.15,2013-07-08 14:16:00,
2013-07-08 09:18:00,74.4,70.6,29.84,NE,56,3.0,4.0,88,0.00,,,0.00,Wunderground v.1.15,2013-07-08 14:18:00,
2013-07-08 09:22:00,75.0,71.9,29.84,East,101,2.0,5.0,90,0.00,,,0.00,Wunderground v.1.15,2013-07-08 14:22:00,
2013-07-08 09:24:00,75.3,71.5,29.84,ENE,72,2.0,5.0,88,0.00,,,0.00,Wunderground v.1.15,2013-07-08 14:24:00,
2013-07-08 09:28:00,75.3,71.2,29.84,East,84,2.0,5.0,87,0.00,,,0.00,Wunderground v.1.15,2013-07-08 14:28:00,
2013-07-08 09:29:00,75.3,70.8,29.84,ENE,70,3.0,3.0,86,0.00,,,0.00,Wunderground v.1.15,2013-07-08 14:29:00,
2013-07-08 09:34:00,75.4,71.6,29.84,NE,50,3.0,4.0,88,0.00,,,0.00,Wunderground v.1.15,2013-07-08 14:34:00,
2013-07-08 09:36:00,75.5,71.4,29.84,NE,50,2.0,4.0,87,0.00,,,0.00,Wunderground v.1.15,2013-07-08 14:36:00,
2013-07-08 09:38:00,75.6,71.5,29.84,ESE,111,2.0,4.0,87,0.00,,,0.00,Wunderground v.1.15,2013-07-08 14:38:00,
2013-07-08 09:40:00,75.6,71.1,29.84,ESE,115,2.0,4.0,86,0.00,,,0.00,Wunderground v.1.15,2013-07-08 14:40:00,
2013-07-08 09:42:00,75.6,71.1,29.84,ENE,63,2.0,4.0,86,0.00,,,0.00,Wunderground v.1.15,2013-07-08 14:42:00,
2013-07-08 09:48:00,75.8,71.7,29.84,NE,54,3.0,4.0,87,0.00,,,0.00,Wunderground v.1.15,2013-07-08 14:48:00,
2013-07-08 09:50:00,75.9,71.4,29.84,NE,56,3.0,4.0,86,0.00,,,0.00,Wunderground v.1.15,2013-07-08 14:50:00,
2013-07-08 09:51:00,76.1,72.3,29.84,SE,125,3.0,4.0,88,0.00,,,0.00,Wunderground v.1.15,2013-07-08 14:51:00,
2013-07-08 09:56:00,76.7,71.8,29.84,ESE,120,2.0,4.0,85,0.00,,,0.00,Wunderground v.1.15,2013-07-08 14:56:00,
2013-07-08 09:58:00,76.8,71.9,29.84,ENE,65,2.0,4.0,85,0.00,,,0.00,Wunderground v.1.15,2013-07-08 14:58:00,
2013-07-08 10:02:00,77.5,73.3,29.84,East,84,2.0,4.0,87,0.00,,,0.00,Wunderground v.1.15,2013-07-08 15:02:00,
2013-07-08 10:04:00,77.8,72.6,29.84,ENE,58,2.0,4.0,84,0.00,,,0.00,Wunderground v.1.15,2013-07-08 15:04:00,
2013-07-08 10:08:00,77.9,72.7,29.84,East,86,1.0,4.0,84,0.00,,,0.00,Wunderground v.1.15,2013-07-08 15:08:00,
2013-07-08 10:10:00,78.0,72.8,29.84,NE,50,1.0,4.0,84,0.00,,,0.00,Wunderground v.1.15,2013-07-08 15:10:00,
2013-07-08 10:16:00,78.0,72.4,29.84,ENE,74,2.0,4.0,83,0.00,,,0.00,Wunderground v.1.15,2013-07-08 15:16:00,
2013-07-08 10:18:00,78.0,72.4,29.84,East,79,2.0,4.0,83,0.00,,,0.00,Wunderground v.1.15,2013-07-08 15:18:00,
2013-07-08 10:20:00,78.2,73.0,29.84,NE,44,2.0,4.0,84,0.00,,,0.00,Wunderground v.1.15,2013-07-08 15:20:00,
2013-07-08 10:24:00,78.5,73.3,29.84,SE,136,2.0,4.0,84,0.00,,,0.00,Wunderground v.1.15,2013-07-08 15:24:00,
2013-07-08 10:26:00,78.8,73.6,29.84,ENE,59,2.0,4.0,84,0.00,,,0.00,Wunderground v.1.15,2013-07-08 15:26:00,
2013-07-08 10:30:00,79.1,73.1,29.84,ENE,59,2.0,4.0,82,0.00,,,0.00,Wunderground v.1.15,2013-07-08 15:30:00,
2013-07-08 10:32:00,79.1,73.1,29.84,East,97,2.0,5.0,82,0.00,,,0.00,Wunderground v.1.15,2013-07-08 15:32:00,
2013-07-08 10:35:00,79.1,73.1,29.84,NE,47,3.0,5.0,82,0.00,,,0.00,Wunderground v.1.15,2013-07-08 15:35:00,
2013-07-08 10:38:00,79.0,73.0,29.84,ENE,64,3.0,5.0,82,0.00,,,0.00,Wunderground v.1.15,2013-07-08 15:38:00,
2013-07-08 10:42:00,78.9,73.3,29.84,ENE,71,4.0,4.0,83,0.00,,,0.00,Wunderground v.1.15,2013-07-08 15:42:00,
2013-07-08 10:44:00,78.8,72.8,29.84,SE,145,4.0,4.0,82,0.00,,,0.00,Wunderground v.1.15,2013-07-08 15:44:00,
2013-07-08 10:46:00,78.9,72.9,29.84,ENE,65,4.0,4.0,82,0.00,,,0.00,Wunderground v.1.15,2013-07-08 15:46:00,
2013-07-08 10:52:00,79.4,73.8,29.84,ENE,58,3.0,4.0,83,0.00,,,0.00,Wunderground v.1.15,2013-07-08 15:52:00,
2013-07-08 10:54:00,79.6,73.3,29.84,ENE,59,3.0,4.0,81,0.00,,,0.00,Wunderground v.1.15,2013-07-08 15:54:00,
2013-07-08 10:57:00,79.9,73.2,29.84,NE,52,2.0,4.0,80,0.00,,,0.00,Wunderground v.1.15,2013-07-08 15:57:00,
2013-07-08 11:00:00,80.0,73.3,29.84,ENE,65,2.0,4.0,80,0.00,,,0.00,Wunderground v.1.15,2013-07-08 16:00:00,
2013-07-08 11:04:00,80.2,74.6,29.84,NE,54,3.0,4.0,83,0.00,,,0.00,Wunderground v.1.15,2013-07-08 16:04:00,
2013-07-08 11:06:00,80.3,73.9,29.84,NE,41,3.0,4.0,81,0.00,,,0.00,Wunderground v.1.15,2013-07-08 16:06:00,
2013-07-08 11:08:00,80.3,73.9,29.84,ENE,64,3.0,4.0,81,0.00,,,0.00,Wunderground v.1.15,2013-07-08 16:08:00,
2013-07-08 11:10:00,80.2,73.5,29.84,NE,49,3.0,4.0,80,0.00,,,0.00,Wunderground v.1.15,2013-07-08 16:10:00,
2013-07-08 11:14:00,80.1,73.4,29.84,ENE,62,3.0,4.0,80,0.00,,,0.00,Wunderground v.1.15,2013-07-08 16:14:00,
2013-07-08 11:16:00,80.3,73.9,29.84,ENE,58,3.0,4.0,81,0.00,,,0.00,Wunderground v.1.15,2013-07-08 16:16:00,
2013-07-08 11:18:00,80.4,74.0,29.84,NE,52,3.0,4.0,81,0.00,,,0.00,Wunderground v.1.15,2013-07-08 16:18:00,
2013-07-08 11:21:00,80.5,73.8,29.84,ESE,110,3.0,4.0,80,0.00,,,0.00,Wunderground v.1.15,2013-07-08 16:21:00,
2013-07-08 11:26:00,81.0,75.0,29.84,SE,134,3.0,4.0,82,0.00,,,0.00,Wunderground v.1.15,2013-07-08 16:26:00,
2013-07-08 11:28:00,81.2,74.1,29.85,ENE,57,2.0,4.0,79,0.00,,,0.00,Wunderground v.1.15,2013-07-08 16:28:00,
2013-07-08 11:34:00,81.2,74.1,29.84,NE,51,3.0,4.0,79,0.00,,,0.00,Wunderground v.1.15,2013-07-08 16:34:00,
2013-07-08 11:38:00,81.2,73.7,29.85,ENE,59,3.0,4.0,78,0.00,,,0.00,Wunderground v.1.15,2013-07-08 16:38:00,
2013-07-08 11:40:00,81.5,74.7,29.84,SE,125,3.0,3.0,80,0.00,,,0.00,Wunderground v.1.15,2013-07-08 16:40:00,
2013-07-08 11:43:00,82.1,74.9,29.84,NE,49,2.0,4.0,79,0.00,,,0.00,Wunderground v.1.15,2013-07-08 16:43:00,
2013-07-08 11:46:00,82.3,75.1,29.84,ESE,110,2.0,4.0,79,0.00,,,0.00,Wunderground v.1.15,2013-07-08 16:46:00,
2013-07-08 11:50:00,82.7,75.5,29.84,ENE,67,2.0,4.0,79,0.00,,,0.00,Wunderground v.1.15,2013-07-08 16:50:00,
2013-07-08 11:56:00,82.4,74.8,29.84,NE,44,3.0,6.0,78,0.00,,,0.00,Wunderground v.1.15,2013-07-08 16:56:00,
2013-07-08 12:03:00,81.8,74.3,29.84,ENE,64,4.0,6.0,78,0.00,,,0.00,Wunderground v.1.15,2013-07-08 17:03:00,
2013-07-08 12:05:00,81.8,74.3,29.84,ENE,65,4.0,6.0,78,0.00,,,0.00,Wunderground v.1.15,2013-07-08 17:05:00,
2013-07-08 12:10:00,82.1,74.6,29.84,ENE,64,3.0,3.0,78,0.00,,,0.00,Wunderground v.1.15,2013-07-08 17:10:00,
2013-07-08 12:12:00,82.2,74.3,29.84,ENE,69,3.0,3.0,77,0.00,,,0.00,Wunderground v.1.15,2013-07-08 17:12:00,
2013-07-08 12:14:00,82.3,75.1,29.84,ENE,65,3.0,3.0,79,0.00,,,0.00,Wunderground v.1.15,2013-07-08 17:14:00,
2013-07-08 12:16:00,82.6,75.8,29.84,SE,145,3.0,3.0,80,0.00,,,0.00,Wunderground v.1.15,2013-07-08 17:16:00,
2013-07-08 12:20:00,83.3,76.1,29.84,NE,41,2.0,4.0,79,0.00,,,0.00,Wunderground v.1.15,2013-07-08 17:20:00,
2013-07-08 12:23:00,83.2,75.6,29.84,SSE,150,2.0,4.0,78,0.00,,,0.00,Wunderground v.1.15,2013-07-08 17:23:00,
2013-07-08 12:30:00,83.9,75.1,29.84,SE,125,2.0,2.0,75,0.00,,,0.00,Wunderground v.1.15,2013-07-08 17:30:00,
2013-07-08 12:32:00,84.1,74.1,29.84,ENE,59,2.0,5.0,72,0.00,,,0.00,Wunderground v.1.15,2013-07-08 17:32:00,
2013-07-08 12:34:00,83.8,73.8,29.84,East,101,2.0,5.0,72,0.00,,,0.00,Wunderground v.1.15,2013-07-08 17:34:00,
2013-07-08 12:44:00,84.1,74.9,29.84,ESE,122,3.0,4.0,74,0.00,,,0.00,Wunderground v.1.15,2013-07-08 17:44:00,
2013-07-08 12:46:00,84.6,75.4,29.84,ENE,60,2.0,4.0,74,0.00,,,0.00,Wunderground v.1.15,2013-07-08 17:46:00,
2013-07-08 12:52:00,84.0,73.6,29.84,NE,49,3.0,4.0,71,0.00,,,0.00,Wunderground v.1.15,2013-07-08 17:52:00,
2013-07-08 12:54:00,83.8,73.8,29.84,ENE,68,3.0,6.0,72,0.00,,,0.00,Wunderground v.1.15,2013-07-08 17:54:00,
2013-07-08 12:56:00,83.7,73.7,29.84,ENE,64,4.0,6.0,72,0.00,,,0.00,Wunderground v.1.15,2013-07-08 17:56:00,
2013-07-08 13:01:00,83.7,74.1,29.83,NE,47,4.0,5.0,73,0.00,,,0.00,Wunderground v.1.15,2013-07-08 18:01:00,
2013-07-08 13:10:00,83.7,74.5,29.83,East,81,4.0,4.0,74,0.00,,,0.00,Wunderground v.1.15,2013-07-08 18:10:00,
2013-07-08 13:15:00,84.2,74.6,29.83,ENE,65,3.0,9.0,73,0.00,,,0.00,Wunderground v.1.15,2013-07-08 18:15:00,
2013-07-08 13:17:00,84.5,74.9,29.83,NE,46,3.0,9.0,73,0.00,,,0.00,Wunderground v.1.15,2013-07-08 18:17:00,
2013-07-08 13:22:00,84.7,73.8,29.83,ENE,71,2.0,9.0,70,0.00,,,0.00,Wunderground v.1.15,2013-07-08 18:22:00,
2013-07-08 13:24:00,84.8,74.8,29.83,East,79,2.0,9.0,72,0.00,,,0.00,Wunderground v.1.15,2013-07-08 18:24:00,
2013-07-08 13:26:00,84.8,73.9,29.83,ENE,58,2.0,9.0,70,0.00,,,0.00,Wunderground v.1.15,2013-07-08 18:26:00,
2013-07-08 13:32:00,84.7,73.0,29.83,ENE,78,3.0,9.0,68,0.00,,,0.00,Wunderground v.1.15,2013-07-08 18:32:00,
2013-07-08 13:38:00,84.9,74.4,29.83,NE,35,3.0,9.0,71,0.00,,,0.00,Wunderground v.1.15,2013-07-08 18:38:00,
2013-07-08 13:50:00,86.4,73.7,29.83,SE,136,2.0,2.0,66,0.00,,,0.00,Wunderground v.1.15,2013-07-08 18:50:00,
2013-07-08 13:58:00,87.3,74.5,29.83,NE,46,1.0,9.0,66,0.00,,,0.00,Wunderground v.1.15,2013-07-08 18:58:00,
2013-07-08 14:04:00,87.8,74.1,29.83,ENE,58,1.0,9.0,64,0.00,,,0.00,Wunderground v.1.15,2013-07-08 19:04:00,
2013-07-08 14:05:00,87.7,73.1,29.82,SE,138,1.0,9.0,62,0.00,,,0.00,Wunderground v.1.15,2013-07-08 19:05:00,
2013-07-08 14:07:00,87.8,73.6,29.82,East,83,1.0,9.0,63,0.00,,,0.00,Wunderground v.1.15,2013-07-08 19:07:00,
2013-07-08 14:14:00,87.2,74.0,29.82,ENE,58,2.0,9.0,65,0.00,,,0.00,Wunderground v.1.15,2013-07-08 19:14:00,
2013-07-08 14:18:00,87.0,71.9,29.82,ESE,113,3.0,9.0,61,0.00,,,0.00,Wunderground v.1.15,2013-07-08 19:18:00,
2013-07-08 14:20:00,87.1,73.4,29.82,ENE,58,2.0,9.0,64,0.00,,,0.00,Wunderground v.1.15,2013-07-08 19:20:00,
2013-07-08 14:25:00,87.2,73.1,29.82,NE,45,2.0,9.0,63,0.00,,,0.00,Wunderground v.1.15,2013-07-08 19:25:00,
2013-07-08 14:32:00,87.4,70.8,29.82,NE,48,2.0,4.0,58,0.00,,,0.00,Wunderground v.1.15,2013-07-08 19:32:00,
2013-07-08 14:38:00,87.3,73.2,29.82,NE,40,3.0,9.0,63,0.00,,,0.00,Wunderground v.1.15,2013-07-08 19:38:00,
2013-07-08 14:39:00,87.4,71.8,29.82,ENE,70,2.0,2.0,60,0.00,,,0.00,Wunderground v.1.15,2013-07-08 19:39:00,
2013-07-08 14:41:00,87.5,73.3,29.82,NE,37,2.0,9.0,63,0.00,,,0.00,Wunderground v.1.15,2013-07-08 19:41:00,
2013-07-08 14:48:00,88.4,71.7,29.82,SSE,148,1.0,9.0,58,0.00,,,0.00,Wunderground v.1.15,2013-07-08 19:48:00,
2013-07-08 14:52:00,89.0,72.3,29.82,SE,141,1.0,9.0,58,0.00,,,0.00,Wunderground v.1.15,2013-07-08 19:52:00,
2013-07-08 14:54:00,89.3,72.1,29.82,SE,142,1.0,9.0,57,0.00,,,0.00,Wunderground v.1.15,2013-07-08 19:54:00,
2013-07-08 14:56:00,89.6,71.3,29.82,East,90,1.0,9.0,55,0.00,,,0.00,Wunderground v.1.15,2013-07-08 19:56:00,
2013-07-08 15:03:00,89.4,68.9,29.82,East,90,1.0,9.0,51,0.00,,,0.00,Wunderground v.1.15,2013-07-08 20:03:00,
2013-07-08 15:08:00,89.1,70.8,29.82,ESE,113,2.0,9.0,55,0.00,,,0.00,Wunderground v.1.15,2013-07-08 20:08:00,
2013-07-08 15:10:00,89.0,71.3,29.82,NE,44,2.0,9.0,56,0.00,,,0.00,Wunderground v.1.15,2013-07-08 20:10:00,
2013-07-08 15:16:00,89.2,72.5,29.82,ENE,64,2.0,9.0,58,0.00,,,0.00,Wunderground v.1.15,2013-07-08 20:16:00,
2013-07-08 15:18:00,89.1,71.9,29.82,East,97,1.0,9.0,57,0.00,,,0.00,Wunderground v.1.15,2013-07-08 20:18:00,
2013-07-08 15:23:00,88.8,72.6,29.82,NNE,32,2.0,9.0,59,0.00,,,0.00,Wunderground v.1.15,2013-07-08 20:23:00,
2013-07-08 15:25:00,88.6,70.9,29.82,ENE,65,2.0,9.0,56,0.00,,,0.00,Wunderground v.1.15,2013-07-08 20:25:00,
2013-07-08 15:32:00,89.4,71.1,29.82,ESE,105,1.0,9.0,55,0.00,,,0.00,Wunderground v.1.15,2013-07-08 20:32:00,
2013-07-08 15:34:00,89.6,71.3,29.82,SE,145,1.0,9.0,55,0.00,,,0.00,Wunderground v.1.15,2013-07-08 20:34:00,
2013-07-08 15:41:00,90.3,71.4,29.81,ENE,63,1.0,9.0,54,0.00,,,0.00,Wunderground v.1.15,2013-07-08 20:41:00,
2013-07-08 15:46:00,90.4,72.0,29.82,NNE,32,1.0,9.0,55,0.00,,,0.00,Wunderground v.1.15,2013-07-08 20:46:00,
2013-07-08 15:48:00,90.1,71.8,29.82,NE,37,2.0,9.0,55,0.00,,,0.00,Wunderground v.1.15,2013-07-08 20:48:00,
2013-07-08 15:52:00,89.7,71.4,29.82,SE,128,2.0,9.0,55,0.00,,,0.00,Wunderground v.1.15,2013-07-08 20:52:00,
2013-07-08 15:54:00,89.8,70.9,29.81,SSE,163,2.0,9.0,54,0.00,,,0.00,Wunderground v.1.15,2013-07-08 20:54:00,
2013-07-08 15:56:00,90.0,71.1,29.82,ENE,78,2.0,9.0,54,0.00,,,0.00,Wunderground v.1.15,2013-07-08 20:56:00,
2013-07-08 16:00:00,90.0,71.1,29.82,ENE,60,2.0,9.0,54,0.00,,,0.00,Wunderground v.1.15,2013-07-08 21:00:00,
2013-07-08 16:01:00,89.8,72.0,29.82,ENE,58,2.0,9.0,56,0.00,,,0.00,Wunderground v.1.15,2013-07-08 21:01:00,
2013-07-08 16:12:00,90.1,71.8,29.82,NE,45,1.0,9.0,55,0.00,,,0.00,Wunderground v.1.15,2013-07-08 21:12:00,
2013-07-08 16:14:00,89.8,69.8,29.81,ENE,61,1.0,9.0,52,0.00,,,0.00,Wunderground v.1.15,2013-07-08 21:14:00,
2013-07-08 16:18:00,89.3,69.9,29.82,ENE,58,2.0,9.0,53,0.00,,,0.00,Wunderground v.1.15,2013-07-08 21:18:00,
2013-07-08 16:19:00,89.2,70.4,29.82,ENE,72,2.0,9.0,54,0.00,,,0.00,Wunderground v.1.15,2013-07-08 21:19:00,
2013-07-08 16:24:00,89.3,71.0,29.82,NE,56,2.0,9.0,55,0.00,,,0.00,Wunderground v.1.15,2013-07-08 21:24:00,
2013-07-08 16:30:00,89.8,69.8,29.82,ENE,68,1.0,9.0,52,0.00,,,0.00,Wunderground v.1.15,2013-07-08 21:30:00,
2013-07-08 16:32:00,89.7,70.8,29.82,NE,35,1.0,9.0,54,0.00,,,0.00,Wunderground v.1.15,2013-07-08 21:32:00,
2013-07-08 16:35:00,89.9,69.9,29.82,SE,139,2.0,9.0,52,0.00,,,0.00,Wunderground v.1.15,2013-07-08 21:35:00,
2013-07-08 16:39:00,90.3,69.1,29.81,SE,146,2.0,2.0,50,0.00,,,0.00,Wunderground v.1.15,2013-07-08 21:39:00,
2013-07-08 16:42:00,90.5,69.9,29.81,SSE,150,2.0,9.0,51,0.00,,,0.00,Wunderground v.1.15,2013-07-08 21:42:00,
2013-07-08 16:46:00,90.8,70.2,29.81,ENE,58,2.0,9.0,51,0.00,,,0.00,Wunderground v.1.15,2013-07-08 21:46:00,
2013-07-08 16:52:00,90.8,71.3,29.81,ESE,105,2.0,9.0,53,0.00,,,0.00,Wunderground v.1.15,2013-07-08 21:52:00,
2013-07-08 16:55:00,90.8,71.3,29.81,ESE,117,1.0,9.0,53,0.00,,,0.00,Wunderground v.1.15,2013-07-08 21:55:00,
2013-07-08 16:58:00,90.9,73.6,29.81,ESE,109,1.0,9.0,57,0.00,,,0.00,Wunderground v.1.15,2013-07-08 21:58:00,
2013-07-08 17:00:00,91.1,72.1,29.81,ESE,108,1.0,1.0,54,0.00,,,0.00,Wunderground v.1.15,2013-07-08 22:00:00,
2013-07-08 17:16:00,90.3,70.3,29.81,NE,56,1.0,9.0,52,0.00,,,0.00,Wunderground v.1.15,2013-07-08 22:16:00,
2013-07-08 17:20:00,90.7,71.2,29.81,ENE,74,1.0,9.0,53,0.00,,,0.00,Wunderground v.1.15,2013-07-08 22:20:00,
2013-07-08 17:24:00,90.5,70.5,29.80,ENE,65,1.0,9.0,52,0.00,,,0.00,Wunderground v.1.15,2013-07-08 22:24:00,
2013-07-08 17:26:00,90.5,71.6,29.80,ENE,63,1.0,9.0,54,0.00,,,0.00,Wunderground v.1.15,2013-07-08 22:26:00,
2013-07-08 17:29:00,90.3,71.4,29.80,ENE,61,2.0,9.0,54,0.00,,,0.00,Wunderground v.1.15,2013-07-08 22:29:00,
2013-07-08 17:33:00,90.5,72.1,29.80,NE,44,1.0,9.0,55,0.00,,,0.00,Wunderground v.1.15,2013-07-08 22:33:00,
2013-07-08 17:40:00,90.3,70.8,29.80,ENE,63,1.0,9.0,53,0.00,,,0.00,Wunderground v.1.15,2013-07-08 22:40:00,
2013-07-08 17:42:00,90.1,70.7,29.80,ENE,60,1.0,9.0,53,0.00,,,0.00,Wunderground v.1.15,2013-07-08 22:42:00,
2013-07-08 17:47:00,89.5,72.3,29.80,NE,56,2.0,9.0,57,0.00,,,0.00,Wunderground v.1.15,2013-07-08 22:47:00,
2013-07-08 17:49:00,89.3,73.1,29.80,ENE,73,3.0,3.0,59,0.00,,,0.00,Wunderground v.1.15,2013-07-08 22:49:00,
2013-07-08 17:52:00,89.2,70.9,29.80,East,95,3.0,9.0,55,0.00,,,0.00,Wunderground v.1.15,2013-07-08 22:52:00,
2013-07-08 18:00:00,89.0,71.3,29.79,ENE,58,2.0,2.0,56,0.00,,,0.00,Wunderground v.1.15,2013-07-08 23:00:00,
2013-07-08 18:02:00,89.1,71.9,29.79,ENE,75,2.0,9.0,57,0.00,,,0.00,Wunderground v.1.15,2013-07-08 23:02:00,
2013-07-08 18:08:00,89.0,70.7,29.79,NE,51,2.0,9.0,55,0.00,,,0.00,Wunderground v.1.15,2013-07-08 23:08:00,
2013-07-08 18:10:00,88.8,70.0,29.79,ENE,60,3.0,9.0,54,0.00,,,0.00,Wunderground v.1.15,2013-07-08 23:10:00,
2013-07-08 18:17:00,88.3,71.1,29.78,SE,134,4.0,9.0,57,0.00,,,0.00,Wunderground v.1.15,2013-07-08 23:17:00,
2013-07-08 18:19:00,88.3,70.6,29.78,ENE,65,3.0,9.0,56,0.00,,,0.00,Wunderground v.1.15,2013-07-08 23:19:00,
2013-07-08 18:21:00,88.3,71.6,29.78,ENE,59,3.0,9.0,58,0.00,,,0.00,Wunderground v.1.15,2013-07-08 23:21:00,
2013-07-08 18:28:00,87.9,70.8,29.78,NE,56,3.0,9.0,57,0.00,,,0.00,Wunderground v.1.15,2013-07-08 23:28:00,
2013-07-08 18:30:00,87.8,71.2,29.78,ENE,60,3.0,9.0,58,0.00,,,0.00,Wunderground v.1.15,2013-07-08 23:30:00,
2013-07-08 18:32:00,87.9,71.8,29.78,NE,42,3.0,9.0,59,0.00,,,0.00,Wunderground v.1.15,2013-07-08 23:32:00,
2013-07-08 18:37:00,87.9,70.8,29.78,ENE,61,2.0,9.0,57,0.00,,,0.00,Wunderground v.1.15,2013-07-08 23:37:00,
2013-07-08 18:46:00,87.8,71.2,29.78,ENE,64,3.0,9.0,58,0.00,,,0.00,Wunderground v.1.15,2013-07-08 23:46:00,
2013-07-08 18:48:00,87.8,71.2,29.78,ENE,58,3.0,9.0,58,0.00,,,0.00,Wunderground v.1.15,2013-07-08 23:48:00,
2013-07-08 18:54:00,87.9,71.8,29.78,ENE,63,2.0,9.0,59,0.00,,,0.00,Wunderground v.1.15,2013-07-08 23:54:00,
2013-07-08 18:56:00,87.9,70.8,29.78,ENE,70,2.0,9.0,57,0.00,,,0.00,Wunderground v.1.15,2013-07-08 23:56:00,
2013-07-08 19:00:00,87.9,70.8,29.78,ENE,66,2.0,9.0,57,0.00,,,0.00,Wunderground v.1.15,2013-07-09 00:00:00,
2013-07-08 19:02:00,87.7,71.1,29.78,NE,46,3.0,9.0,58,0.00,,,0.00,Wunderground v.1.15,2013-07-09 00:02:00,
2013-07-08 19:08:00,87.6,72.5,29.78,East,96,3.0,9.0,61,0.00,,,0.00,Wunderground v.1.15,2013-07-09 00:08:00,
2013-07-08 19:10:00,87.5,71.4,29.78,NE,47,3.0,9.0,59,0.00,,,0.00,Wunderground v.1.15,2013-07-09 00:10:00,
2013-07-08 19:16:00,87.2,71.1,29.78,ENE,65,3.0,9.0,59,0.00,,,0.00,Wunderground v.1.15,2013-07-09 00:16:00,
2013-07-08 19:18:00,87.1,71.0,29.78,ENE,68,3.0,9.0,59,0.00,,,0.00,Wunderground v.1.15,2013-07-09 00:18:00,
2013-07-08 19:26:00,87.0,71.9,29.78,ENE,67,2.0,9.0,61,0.00,,,0.00,Wunderground v.1.15,2013-07-09 00:26:00,
2013-07-08 19:40:00,86.5,71.5,29.78,ENE,65,3.0,3.0,61,0.00,,,0.00,Wunderground v.1.15,2013-07-09 00:40:00,
2013-07-08 19:48:00,86.0,73.3,29.78,NE,42,2.0,9.0,66,0.00,,,0.00,Wunderground v.1.15,2013-07-09 00:48:00,
2013-07-08 19:50:00,85.9,73.7,29.78,NE,44,2.0,9.0,67,0.00,,,0.00,Wunderground v.1.15,2013-07-09 00:50:00,
2013-07-08 19:59:00,85.1,74.6,29.78,NE,52,2.0,9.0,71,0.00,,,0.00,Wunderground v.1.15,2013-07-09 00:59:00,
2013-07-08 20:01:00,85.0,74.5,29.78,NE,53,1.0,9.0,71,0.00,,,0.00,Wunderground v.1.15,2013-07-09 01:01:00,
2013-07-08 20:08:00,84.5,74.5,29.78,NE,44,1.0,9.0,72,0.00,,,0.00,Wunderground v.1.15,2013-07-09 01:08:00,
2013-07-08 20:10:00,84.3,73.9,29.78,ENE,64,1.0,9.0,71,0.00,,,0.00,Wunderground v.1.15,2013-07-09 01:10:00,
2013-07-08 20:16:00,84.0,74.0,29.78,ENE,62,1.0,9.0,72,0.00,,,0.00,Wunderground v.1.15,2013-07-09 01:16:00,
2013-07-08 20:36:00,83.4,73.0,29.78,East,93,2.0,9.0,71,0.00,,,0.00,Wunderground v.1.15,2013-07-09 01:36:00,
2013-07-08 20:42:00,83.0,72.6,29.78,NE,46,2.0,9.0,71,0.00,,,0.00,Wunderground v.1.15,2013-07-09 01:42:00,
2013-07-08 20:44:00,82.8,72.8,29.78,NE,52,2.0,9.0,72,0.00,,,0.00,Wunderground v.1.15,2013-07-09 01:44:00,
2013-07-08 20:45:00,82.7,72.7,29.78,ENE,60,2.0,9.0,72,0.00,,,0.00,Wunderground v.1.15,2013-07-09 01:45:00,
2013-07-08 20:52:00,82.4,72.9,29.78,ENE,60,3.0,9.0,73,0.00,,,0.00,Wunderground v.1.15,2013-07-09 01:52:00,
2013-07-08 20:54:00,82.4,73.3,29.78,East,83,3.0,9.0,74,0.00,,,0.00,Wunderground v.1.15,2013-07-09 01:54:00,
2013-07-08 20:58:00,82.3,73.2,29.78,ENE,60,4.0,9.0,74,0.00,,,0.00,Wunderground v.1.15,2013-07-09 01:58:00,
2013-07-08 21:00:00,82.2,73.1,29.78,ENE,64,4.0,4.0,74,0.00,,,0.00,Wunderground v.1.15,2013-07-09 02:00:00,
2013-07-08 21:05:00,82.1,73.0,29.78,ENE,59,4.0,9.0,74,0.00,,,0.00,Wunderground v.1.15,2013-07-09 02:05:00,
2013-07-08 21:07:00,82.0,72.5,29.78,ESE,105,3.0,9.0,73,0.00,,,0.00,Wunderground v.1.15,2013-07-09 02:07:00,
2013-07-08 21:10:00,81.9,72.8,29.78,ENE,75,3.0,3.0,74,0.00,,,0.00,Wunderground v.1.15,2013-07-09 02:10:00,
2013-07-08 21:14:00,81.9,73.2,29.78,ENE,74,2.0,9.0,75,0.00,,,0.00,Wunderground v.1.15,2013-07-09 02:14:00,
2013-07-08 21:21:00,81.6,72.9,29.79,ENE,74,0.0,9.0,75,0.00,,,0.00,Wunderground v.1.15,2013-07-09 02:21:00,
2013-07-08 21:23:00,81.6,73.3,29.79,ENE,74,0.0,9.0,76,0.00,,,0.00,Wunderground v.1.15,2013-07-09 02:23:00,
2013-07-08 21:26:00,81.5,73.2,29.79,ENE,74,0.0,9.0,76,0.00,,,0.00,Wunderground v.1.15,2013-07-09 02:26:00,
2013-07-08 21:34:00,81.0,73.1,29.80,ENE,77,0.0,9.0,77,0.00,,,0.00,Wunderground v.1.15,2013-07-09 02:34:00,
2013-07-08 21:36:00,80.8,72.5,29.79,East,79,0.0,9.0,76,0.00,,,0.00,Wunderground v.1.15,2013-07-09 02:36:00,
2013-07-08 21:41:00,80.6,72.3,29.79,East,83,0.0,9.0,76,0.00,,,0.00,Wunderground v.1.15,2013-07-09 02:41:00,
2013-07-08 21:44:00,80.5,72.6,29.79,ESE,103,0.0,9.0,77,0.00,,,0.00,Wunderground v.1.15,2013-07-09 02:44:00,
2013-07-08 21:55:00,80.2,72.7,29.80,SE,128,1.0,9.0,78,0.00,,,0.00,Wunderground v.1.15,2013-07-09 02:55:00,
2013-07-08 21:58:00,80.2,72.7,29.80,SE,140,1.0,9.0,78,0.00,,,0.00,Wunderground v.1.15,2013-07-09 02:58:00,
2013-07-08 22:00:00,80.2,72.7,29.80,SE,142,1.0,9.0,78,0.00,,,0.00,Wunderground v.1.15,2013-07-09 03:00:00,
2013-07-08 22:02:00,80.3,72.4,29.80,SE,145,1.0,9.0,77,0.00,,,0.00,Wunderground v.1.15,2013-07-09 03:02:00,
2013-07-08 22:04:00,80.3,72.4,29.80,SSE,149,2.0,9.0,77,0.00,,,0.00,Wunderground v.1.15,2013-07-09 03:04:00,
2013-07-08 22:06:00,80.4,72.5,29.80,SSE,148,2.0,9.0,77,0.00,,,0.00,Wunderground v.1.15,2013-07-09 03:06:00,
2013-07-08 22:12:00,80.3,72.0,29.80,SE,134,2.0,9.0,76,0.00,,,0.00,Wunderground v.1.15,2013-07-09 03:12:00,
2013-07-08 22:14:00,80.3,72.4,29.79,SSE,152,2.0,9.0,77,0.00,,,0.00,Wunderground v.1.15,2013-07-09 03:14:00,
2013-07-08 22:15:00,80.3,72.4,29.79,SSE,153,2.0,9.0,77,0.00,,,0.00,Wunderground v.1.15,2013-07-09 03:15:00,
2013-07-08 22:20:00,80.1,72.6,29.79,SE,128,2.0,2.0,78,0.00,,,0.00,Wunderground v.1.15,2013-07-09 03:20:00,
2013-07-08 22:26:00,79.9,72.4,29.79,SE,128,1.0,9.0,78,0.00,,,0.00,Wunderground v.1.15,2013-07-09 03:26:00,
2013-07-08 22:30:00,79.7,72.2,29.79,SE,145,1.0,1.0,78,0.00,,,0.00,Wunderground v.1.15,2013-07-09 03:30:00,
2013-07-08 22:33:00,79.6,71.8,29.79,SW,215,1.0,9.0,77,0.00,,,0.00,Wunderground v.1.15,2013-07-09 03:33:00,
2013-07-08 22:40:00,79.5,71.7,29.79,SE,136,2.0,9.0,77,0.00,,,0.00,Wunderground v.1.15,2013-07-09 03:40:00,
2013-07-08 22:42:00,79.4,71.9,29.79,SE,139,2.0,9.0,78,0.00,,,0.00,Wunderground v.1.15,2013-07-09 03:42:00,
2013-07-08 22:44:00,79.4,72.3,29.79,ESE,121,2.0,9.0,79,0.00,,,0.00,Wunderground v.1.15,2013-07-09 03:44:00,
2013-07-08 22:50:00,79.2,72.1,29.79,SE,145,2.0,9.0,79,0.00,,,0.00,Wunderground v.1.15,2013-07-09 03:50:00,
2013-07-08 22:56:00,79.1,72.4,29.79,SE,146,2.0,9.0,80,0.00,,,0.00,Wunderground v.1.15,2013-07-09 03:56:00,
2013-07-08 22:58:00,79.1,72.8,29.79,SE,139,2.0,9.0,81,0.00,,,0.00,Wunderground v.1.15,2013-07-09 03:58:00,
2013-07-08 23:02:00,79.0,72.3,29.79,SE,139,3.0,9.0,80,0.00,,,0.00,Wunderground v.1.15,2013-07-09 04:02:00,
2013-07-08 23:04:00,79.0,72.3,29.79,SE,134,3.0,9.0,80,0.00,,,0.00,Wunderground v.1.15,2013-07-09 04:04:00,
2013-07-08 23:06:00,79.0,72.3,29.79,SE,135,3.0,9.0,80,0.00,,,0.00,Wunderground v.1.15,2013-07-09 04:06:00,
2013-07-08 23:09:00,78.9,72.2,29.79,SE,142,3.0,3.0,80,0.00,,,0.00,Wunderground v.1.15,2013-07-09 04:09:00,
2013-07-08 23:11:00,79.0,72.7,29.78,SE,142,3.0,9.0,81,0.00,,,0.00,Wunderground v.1.15,2013-07-09 04:11:00,
2013-07-08 23:16:00,78.9,72.6,29.78,SE,142,1.0,9.0,81,0.00,,,0.00,Wunderground v.1.15,2013-07-09 04:16:00,
2013-07-08 23:18:00,78.9,72.6,29.79,SE,142,1.0,9.0,81,0.00,,,0.00,Wunderground v.1.15,2013-07-09 04:18:00,
2013-07-08 23:20:00,78.8,72.5,29.79,SE,142,0.0,9.0,81,0.00,,,0.00,Wunderground v.1.15,2013-07-09 04:20:00,
2013-07-08 23:22:00,78.7,72.7,29.79,SE,142,0.0,9.0,82,0.00,,,0.00,Wunderground v.1.15,2013-07-09 04:22:00,
2013-07-08 23:24:00,78.6,72.6,29.78,SE,142,0.0,9.0,82,0.00,,,0.00,Wunderground v.1.15,2013-07-09 04:24:00,
2013-07-08 23:26:00,78.6,72.6,29.78,SE,143,0.0,9.0,82,0.00,,,0.00,Wunderground v.1.15,2013-07-09 04:26:00,
2013-07-08 23:30:00,78.4,72.4,29.78,South,172,0.0,9.0,82,0.00,,,0.00,Wunderground v.1.15,2013-07-09 04:30:00,
2013-07-08 23:32:00,78.3,72.3,29.78,South,173,0.0,9.0,82,0.00,,,0.00,Wunderground v.1.15,2013-07-09 04:32:00,
2013-07-08 23:33:00,78.3,72.7,29.78,South,172,0.0,9.0,83,0.00,,,0.00,Wunderground v.1.15,2013-07-09 04:33:00,
2013-07-08 23:40:00,78.2,73.0,29.78,SE,142,0.0,9.0,84,0.00,,,0.00,Wunderground v.1.15,2013-07-09 04:40:00,
2013-07-08 23:44:00,78.4,73.9,29.78,SE,145,1.0,9.0,86,0.00,,,0.00,Wunderground v.1.15,2013-07-09 04:44:00,
2013-07-08 23:48:00,78.3,72.7,29.78,SE,143,1.0,9.0,83,0.00,,,0.00,Wunderground v.1.15,2013-07-09 04:48:00,
2013-07-08 23:50:00,78.2,72.3,29.78,SE,145,1.0,9.0,82,0.00,,,0.00,Wunderground v.1.15,2013-07-09 04:50:00,
2013-07-08 23:52:00,78.2,73.0,29.78,SSE,148,1.0,9.0,84,0.00,,,0.00,Wunderground v.1.15,2013-07-09 04:52:00,
2013-07-08 23:54:00,78.2,73.3,29.78,SE,143,1.0,9.0,85,0.00,,,0.00,Wunderground v.1.15,2013-07-09 04:54:00,
2013-07-08 23:55:00,78.1,72.5,29.78,SE,141,1.0,9.0,83,0.00,,,0.00,Wunderground v.1.15,2013-07-09 04:55:00,
2013-07-08 23:57:00,78.0,72.1,29.78,SE,140,1.0,9.0,82,0.00,,,0.00,Wunderground v.1.15,2013-07-09 04:57:00,